BAW55W EGKK-LIBD

Flight info

Callsign BAW55W
Flight time 2h 14m
Altitude 35000
Route BOGNA L612 XAMAB UL612 OGULO DCT OKASI DCT OKEKO DCT MOU DCT MADIV DCT MOKIP DCT TUFTA DCT KOGAS/N0440F370 DCT MEDAM DCT NITAM DCT MOGBO DCT GIKIN DCT MOPUV DCT AMSOR DCT BUMOK
Aircraft A320/M-SDE3FGHIRWY/LB1

Departure

Time 2026-04-10 13:55
Airport London Gatwick Airport (EGKK)

Arrival

Time 2026-04-10 16:10
Airport Bari Karol Wojtyła International Airport (LIBD)
Time Latitude Longitude Altitude Speed Heading
2026-04-10 13:25 51.15481 -0.17031 205 ft 0 kts 348°
2026-04-10 13:37 51.15478 -0.17030 204 ft 3 kts 348°
2026-04-10 13:37 51.15452 -0.17025 227 ft 4 kts
2026-04-10 13:38 51.15427 -0.17035 215 ft 4 kts 42°
2026-04-10 13:38 51.15418 -0.17058 210 ft 1 kts 78°
2026-04-10 13:38 51.15417 -0.17063 216 ft 0 kts 78°
2026-04-10 13:40 51.15417 -0.17062 204 ft 0 kts 78°
2026-04-10 13:40 51.15419 -0.17049 210 ft 5 kts 77°
2026-04-10 13:41 51.15429 -0.16977 204 ft 0 kts 77°
2026-04-10 13:41 51.15431 -0.16967 204 ft 2 kts 77°
2026-04-10 13:41 51.15435 -0.16935 211 ft 4 kts 77°
2026-04-10 13:41 51.15442 -0.16884 204 ft 6 kts 77°
2026-04-10 13:42 51.15443 -0.16876 204 ft 0 kts 77°
2026-04-10 13:44 51.15447 -0.16853 211 ft 6 kts 77°
2026-04-10 13:44 51.15455 -0.16777 207 ft 8 kts 91°
2026-04-10 13:45 51.15415 -0.16723 204 ft 9 kts 165°
2026-04-10 13:45 51.15349 -0.16696 204 ft 11 kts 162°
2026-04-10 13:45 51.15270 -0.16663 209 ft 11 kts 168°
2026-04-10 13:45 51.15242 -0.16653 207 ft 0 kts 168°
2026-04-10 13:51 51.15239 -0.16653 208 ft 3 kts 168°
2026-04-10 13:51 51.15190 -0.16636 207 ft 9 kts 169°
2026-04-10 13:52 51.15140 -0.16685 205 ft 10 kts 249°
2026-04-10 13:52 51.15131 -0.16739 205 ft 0 kts 256°
2026-04-10 13:54 51.15126 -0.16772 212 ft 14 kts 257°
2026-04-10 13:54 51.15052 -0.17294 212 ft 80 kts 257°
2026-04-10 13:55 51.14894 -0.18442 210 ft 131 kts 257°
2026-04-10 13:55 51.14670 -0.20062 315 ft 160 kts 257°
2026-04-10 13:55 51.14436 -0.21773 919 ft 158 kts 255°
2026-04-10 13:55 51.14209 -0.23467 1486 ft 162 kts 255°
2026-04-10 13:56 51.13946 -0.25342 1743 ft 184 kts 255°
2026-04-10 13:56 51.13643 -0.27424 2071 ft 203 kts 254°
2026-04-10 13:56 51.13310 -0.29767 2309 ft 228 kts 256°
2026-04-10 13:56 51.12974 -0.32230 3251 ft 223 kts 255°
2026-04-10 13:57 51.12648 -0.34622 4172 ft 221 kts 255°
2026-04-10 13:57 51.12321 -0.36998 4903 ft 225 kts 255°
2026-04-10 13:57 51.11919 -0.39468 5639 ft 226 kts 243°
2026-04-10 13:57 51.10951 -0.41338 6445 ft 225 kts 212°
2026-04-10 13:58 51.09460 -0.42061 7151 ft 231 kts 182°
2026-04-10 13:58 51.07840 -0.41900 7859 ft 235 kts 180°
2026-04-10 13:58 51.06141 -0.41677 8219 ft 256 kts 180°
2026-04-10 13:58 51.04376 -0.41443 8667 ft 270 kts 180°
2026-04-10 13:59 51.02483 -0.41191 9353 ft 276 kts 181°
2026-04-10 13:59 51.00556 -0.40938 10082 ft 280 kts 182°
2026-04-10 13:59 50.98600 -0.40682 10718 ft 284 kts 182°
2026-04-10 13:59 50.96611 -0.40423 11358 ft 288 kts 182°
2026-04-10 14:00 50.94599 -0.40162 11988 ft 292 kts 182°
2026-04-10 14:00 50.92555 -0.39900 12629 ft 296 kts 183°
2026-04-10 14:00 50.90484 -0.39638 13265 ft 300 kts 183°
2026-04-10 14:00 50.88389 -0.39374 13897 ft 304 kts 183°
2026-04-10 14:01 50.86267 -0.39106 14466 ft 307 kts 183°
2026-04-10 14:01 50.84128 -0.38642 15075 ft 317 kts 173°
2026-04-10 14:01 50.82031 -0.37376 15655 ft 330 kts 158°
2026-04-10 14:01 50.80092 -0.35433 16244 ft 336 kts 154°
2026-04-10 14:02 50.78135 -0.33389 16836 ft 339 kts 154°
2026-04-10 14:02 50.76157 -0.31332 17418 ft 341 kts 154°
2026-04-10 14:02 50.74166 -0.29266 17982 ft 344 kts 154°
2026-04-10 14:02 50.72156 -0.27187 18525 ft 347 kts 154°
2026-04-10 14:03 50.70131 -0.25094 18995 ft 349 kts 155°
2026-04-10 14:03 50.68062 -0.22955 19197 ft 363 kts 154°
2026-04-10 14:03 50.65904 -0.20719 19318 ft 378 kts 154°
2026-04-10 14:03 50.63661 -0.18385 19420 ft 393 kts 154°
2026-04-10 14:04 50.61343 -0.15962 19544 ft 407 kts 153°
2026-04-10 14:04 50.58968 -0.13463 19885 ft 414 kts 153°
2026-04-10 14:04 50.56562 -0.10930 20332 ft 418 kts 153°
2026-04-10 14:05 50.51679 -0.05801 21250 ft 425 kts 154°
2026-04-10 14:05 50.49200 -0.03213 21688 ft 429 kts 154°
2026-04-10 14:05 50.46705 -0.00621 22113 ft 432 kts 154°
2026-04-10 14:05 50.44183 0.01991 22488 ft 437 kts 154°
2026-04-10 14:06 50.41632 0.04628 22862 ft 440 kts 154°
2026-04-10 14:06 50.39070 0.07280 23278 ft 443 kts 154°
2026-04-10 14:06 50.36525 0.09914 23679 ft 446 kts 154°
2026-04-10 14:06 50.33926 0.12606 24013 ft 449 kts 154°
2026-04-10 14:07 50.31312 0.15305 24356 ft 451 kts 154°
2026-04-10 14:07 50.28680 0.18018 24687 ft 454 kts 154°
2026-04-10 14:07 50.26039 0.20733 25027 ft 456 kts 154°
2026-04-10 14:07 50.23381 0.23458 25340 ft 458 kts 154°
2026-04-10 14:08 50.20713 0.26191 25666 ft 460 kts 154°
2026-04-10 14:08 50.18029 0.28936 25952 ft 462 kts 154°
2026-04-10 14:08 50.15337 0.31695 26268 ft 464 kts 154°
2026-04-10 14:08 50.12632 0.34475 26581 ft 466 kts 154°
2026-04-10 14:09 50.09920 0.37263 26897 ft 468 kts 154°
2026-04-10 14:09 50.07192 0.40064 27201 ft 471 kts 154°
2026-04-10 14:09 50.04450 0.42875 27505 ft 473 kts 154°
2026-04-10 14:09 50.01696 0.45694 27812 ft 475 kts 153°
2026-04-10 14:10 49.98933 0.48517 28172 ft 475 kts 154°
2026-04-10 14:10 49.96172 0.51332 28563 ft 474 kts 153°
2026-04-10 14:10 49.93417 0.54137 28995 ft 473 kts 153°
2026-04-10 14:10 49.90666 0.56934 29428 ft 473 kts 153°
2026-04-10 14:11 49.87911 0.59728 29869 ft 472 kts 153°
2026-04-10 14:11 49.85235 0.62562 30287 ft 475 kts 148°
2026-04-10 14:11 49.82658 0.65793 30647 ft 476 kts 147°
2026-04-10 14:11 49.80086 0.69036 30976 ft 477 kts 147°
2026-04-10 14:12 49.77509 0.72277 31287 ft 478 kts 147°
2026-04-10 14:12 49.74926 0.75520 31612 ft 478 kts 147°
2026-04-10 14:12 49.72340 0.78766 31922 ft 479 kts 147°
2026-04-10 14:12 49.69755 0.82008 32254 ft 479 kts 147°
2026-04-10 14:13 49.67163 0.85251 32585 ft 480 kts 147°
2026-04-10 14:13 49.64565 0.88495 32919 ft 480 kts 147°
2026-04-10 14:13 49.61967 0.91734 33232 ft 481 kts 147°
2026-04-10 14:13 49.59354 0.94991 33525 ft 483 kts 147°
2026-04-10 14:14 49.56741 0.98243 33826 ft 483 kts 147°
2026-04-10 14:14 49.54121 1.01494 34131 ft 484 kts 147°
2026-04-10 14:14 49.51497 1.04748 34354 ft 484 kts 146°
2026-04-10 14:14 49.48878 1.08001 34666 ft 483 kts 146°
2026-04-10 14:15 49.46261 1.11248 34927 ft 483 kts 146°
2026-04-10 14:15 49.43643 1.14487 35098 ft 484 kts 146°
2026-04-10 14:15 49.41003 1.17741 35140 ft 489 kts 146°
2026-04-10 14:16 49.35658 1.24297 35140 ft 500 kts 146°
2026-04-10 14:16 49.30207 1.30983 35135 ft 502 kts 146°
2026-04-10 14:17 49.24747 1.37683 35130 ft 503 kts 146°
2026-04-10 14:17 49.19279 1.44369 35131 ft 503 kts 146°
2026-04-10 14:18 49.13802 1.51032 35141 ft 503 kts 146°
2026-04-10 14:18 49.08317 1.57684 35146 ft 504 kts 146°
2026-04-10 14:19 49.02832 1.64310 35133 ft 503 kts 146°
2026-04-10 14:19 48.97348 1.70926 35147 ft 503 kts 146°
2026-04-10 14:20 48.91901 1.77483 35155 ft 503 kts 146°
2026-04-10 14:20 48.86407 1.84079 35150 ft 503 kts 146°
2026-04-10 14:21 48.80919 1.90669 35151 ft 503 kts 146°
2026-04-10 14:21 48.76347 1.96120 35151 ft 503 kts 146°
2026-04-10 14:22 48.70827 2.02660 35151 ft 503 kts 146°
2026-04-10 14:22 48.65315 2.09197 35152 ft 503 kts 146°
2026-04-10 14:23 48.59798 2.15711 35142 ft 503 kts 146°
2026-04-10 14:23 48.54539 2.22708 35147 ft 506 kts 137°
2026-04-10 14:24 48.49587 2.30276 35145 ft 506 kts 137°
2026-04-10 14:24 48.44643 2.37752 35142 ft 507 kts 137°
2026-04-10 14:25 48.39658 2.45254 35121 ft 506 kts 137°
2026-04-10 14:25 48.34682 2.52729 35137 ft 506 kts 137°
2026-04-10 14:26 48.29634 2.60091 35149 ft 504 kts 143°
2026-04-10 14:26 48.23760 2.65621 35139 ft 495 kts 160°
2026-04-10 14:27 48.17531 2.70089 35107 ft 497 kts 156°
2026-04-10 14:27 48.11453 2.75055 35125 ft 498 kts 154°
2026-04-10 14:28 48.05293 2.79745 35127 ft 495 kts 160°
2026-04-10 14:28 47.98975 2.83832 35140 ft 494 kts 161°
2026-04-10 14:29 47.92677 2.87763 35126 ft 494 kts 161°
2026-04-10 14:29 47.86349 2.91723 35136 ft 494 kts 161°
2026-04-10 14:30 47.80025 2.95715 35143 ft 494 kts 161°
2026-04-10 14:30 47.73703 2.99723 35108 ft 494 kts 160°
2026-04-10 14:31 47.67375 3.03713 35114 ft 494 kts 160°
2026-04-10 14:31 47.61048 3.07678 35119 ft 494 kts 160°
2026-04-10 14:32 47.54753 3.11608 35109 ft 494 kts 160°
2026-04-10 14:32 47.48423 3.15550 35117 ft 493 kts 160°
2026-04-10 14:33 47.42097 3.19486 35116 ft 493 kts 160°
2026-04-10 14:33 47.35775 3.23404 35118 ft 493 kts 160°
2026-04-10 14:34 47.29459 3.27304 35108 ft 492 kts 160°
2026-04-10 14:34 47.23144 3.31195 35115 ft 492 kts 160°
2026-04-10 14:35 47.16833 3.35073 35114 ft 491 kts 160°
2026-04-10 14:35 47.10523 3.38945 35115 ft 491 kts 160°
2026-04-10 14:36 47.04217 3.42817 35121 ft 491 kts 160°
2026-04-10 14:36 46.97913 3.46663 35118 ft 490 kts 160°
2026-04-10 14:37 46.91650 3.50473 35103 ft 490 kts 159°
2026-04-10 14:37 46.85357 3.54291 35103 ft 489 kts 159°
2026-04-10 14:38 46.79074 3.58132 35104 ft 490 kts 156°
2026-04-10 14:38 46.76116 3.60610 35104 ft 491 kts 145°
2026-04-10 14:38 46.73494 3.63789 35104 ft 491 kts 134°
2026-04-10 14:38 46.71296 3.67584 35102 ft 490 kts 123°
2026-04-10 14:39 46.69597 3.71860 35099 ft 487 kts 112°
2026-04-10 14:39 46.67635 3.81217 35099 ft 483 kts 101°
2026-04-10 14:40 46.66025 3.90723 35101 ft 484 kts 101°
2026-04-10 14:40 46.64373 4.00222 35105 ft 484 kts 101°
2026-04-10 14:41 46.62717 4.09733 35117 ft 485 kts 101°
2026-04-10 14:41 46.61072 4.19182 35113 ft 485 kts 101°
2026-04-10 14:42 46.59399 4.28716 35111 ft 485 kts 101°
2026-04-10 14:42 46.57724 4.38224 35107 ft 486 kts 102°
2026-04-10 14:43 46.56040 4.47730 35114 ft 486 kts 101°
2026-04-10 14:43 46.54342 4.57244 35106 ft 486 kts 102°
2026-04-10 14:44 46.52634 4.66757 35100 ft 487 kts 102°
2026-04-10 14:44 46.50918 4.76263 35106 ft 487 kts 102°
2026-04-10 14:45 46.49204 4.85707 35120 ft 487 kts 102°
2026-04-10 14:45 46.47476 4.95208 35112 ft 487 kts 102°
2026-04-10 14:46 46.45743 5.04716 35091 ft 487 kts 102°
2026-04-10 14:46 46.44003 5.14212 35107 ft 487 kts 102°
2026-04-10 14:47 46.42250 5.23685 35125 ft 486 kts 102°
2026-04-10 14:47 46.40494 5.33149 35123 ft 486 kts 102°
2026-04-10 14:48 46.38095 5.42310 35117 ft 490 kts 118°
2026-04-10 14:48 46.34029 5.50222 35115 ft 491 kts 130°
2026-04-10 14:49 46.29577 5.57738 35109 ft 492 kts 130°
2026-04-10 14:49 46.25165 5.65210 35108 ft 492 kts 130°
2026-04-10 14:50 46.20720 5.72729 35088 ft 492 kts 130°
2026-04-10 14:50 46.16253 5.80246 35082 ft 492 kts 130°
2026-04-10 14:51 46.11785 5.87729 35084 ft 492 kts 130°
2026-04-10 14:51 46.07311 5.95201 35096 ft 492 kts 130°
2026-04-10 14:52 46.02844 6.02668 35108 ft 492 kts 130°
2026-04-10 14:52 45.98397 6.10073 35096 ft 492 kts 130°
2026-04-10 14:53 45.93914 6.17491 35103 ft 491 kts 130°
2026-04-10 14:53 45.89425 6.24901 35103 ft 491 kts 130°
2026-04-10 14:54 45.84946 6.32298 35104 ft 491 kts 130°
2026-04-10 14:54 45.80286 6.39455 35097 ft 491 kts 140°
2026-04-10 14:55 45.74790 6.45248 35097 ft 490 kts 145°
2026-04-10 14:55 45.69229 6.50902 35107 ft 491 kts 145°
2026-04-10 14:56 45.63672 6.56554 35109 ft 490 kts 145°
2026-04-10 14:56 45.58105 6.62196 35098 ft 490 kts 145°
2026-04-10 14:57 45.52581 6.67771 35130 ft 489 kts 145°
2026-04-10 14:57 45.47033 6.73352 35138 ft 488 kts 145°
2026-04-10 14:58 45.41491 6.78920 35135 ft 487 kts 145°
2026-04-10 14:58 45.35962 6.84477 35124 ft 486 kts 144°
2026-04-10 14:58 45.33441 6.87645 35127 ft 484 kts 129°
2026-04-10 14:59 45.31438 6.91471 35120 ft 482 kts 123°
2026-04-10 14:59 45.27649 6.99332 35118 ft 483 kts 123°
2026-04-10 15:00 45.23895 7.07181 35103 ft 484 kts 123°
2026-04-10 15:00 45.20095 7.15067 35094 ft 485 kts 123°
2026-04-10 15:01 45.16263 7.22963 35113 ft 486 kts 123°
2026-04-10 15:01 45.12426 7.30859 35115 ft 486 kts 123°
2026-04-10 15:02 45.08582 7.38739 35127 ft 486 kts 123°
2026-04-10 15:02 45.04736 7.46621 35110 ft 486 kts 123°
2026-04-10 15:02 45.02817 7.50550 34992 ft 486 kts 123°
2026-04-10 15:03 45.00896 7.54477 34988 ft 486 kts 123°
2026-04-10 15:03 44.97063 7.62272 35016 ft 486 kts 123°
2026-04-10 15:04 44.93197 7.70102 35015 ft 486 kts 124°
2026-04-10 15:04 44.89325 7.77938 35011 ft 486 kts 124°
2026-04-10 15:05 44.83513 7.89673 35006 ft 487 kts 124°
2026-04-10 15:05 44.79626 7.97487 35001 ft 487 kts 124°
2026-04-10 15:06 44.75729 8.05288 35008 ft 487 kts 124°
2026-04-10 15:06 44.71857 8.13027 35006 ft 487 kts 124°
2026-04-10 15:07 44.67953 8.20815 34999 ft 487 kts 124°
2026-04-10 15:07 44.64045 8.28591 35005 ft 487 kts 124°
2026-04-10 15:08 44.60130 8.36355 35024 ft 487 kts 124°
2026-04-10 15:08 44.56203 8.44125 35016 ft 488 kts 124°
2026-04-10 15:09 44.52272 8.51890 35025 ft 488 kts 124°
2026-04-10 15:09 44.48329 8.59643 35032 ft 489 kts 124°
2026-04-10 15:10 44.44381 8.67385 35041 ft 489 kts 124°
2026-04-10 15:10 44.40425 8.75128 35057 ft 489 kts 124°
2026-04-10 15:11 44.36484 8.82821 35049 ft 490 kts 124°
2026-04-10 15:11 44.32508 8.90568 35045 ft 490 kts 124°
2026-04-10 15:12 44.28521 8.98296 35034 ft 491 kts 124°
2026-04-10 15:12 44.24527 9.06022 35032 ft 491 kts 124°
2026-04-10 15:13 44.20531 9.13740 35050 ft 491 kts 124°
2026-04-10 15:13 44.16531 9.21438 35046 ft 491 kts 124°
2026-04-10 15:14 44.12528 9.29140 35041 ft 491 kts 124°
2026-04-10 15:14 44.08587 9.36686 35040 ft 491 kts 124°
2026-04-10 15:15 44.04572 9.44367 35043 ft 491 kts 124°
2026-04-10 15:15 44.00552 9.52046 35041 ft 491 kts 124°
2026-04-10 15:16 43.97201 9.58410 35041 ft 492 kts 124°
2026-04-10 15:16 43.93155 9.66069 35040 ft 492 kts 124°
2026-04-10 15:17 43.89114 9.73721 35040 ft 492 kts 124°
2026-04-10 15:17 43.85059 9.81371 35041 ft 492 kts 124°
2026-04-10 15:18 43.81002 9.89008 35046 ft 492 kts 124°
2026-04-10 15:18 43.76959 9.96590 35038 ft 493 kts 124°
2026-04-10 15:19 43.72890 10.04214 35043 ft 493 kts 124°
2026-04-10 15:19 43.68814 10.11829 35042 ft 492 kts 124°
2026-04-10 15:20 43.64732 10.19427 35048 ft 492 kts 125°
2026-04-10 15:20 43.60643 10.27019 35055 ft 493 kts 125°
2026-04-10 15:21 43.56549 10.34615 35051 ft 493 kts 125°
2026-04-10 15:21 43.52445 10.42194 35045 ft 494 kts 125°
2026-04-10 15:22 43.48330 10.49763 35045 ft 494 kts 125°
2026-04-10 15:22 43.44217 10.57331 35051 ft 494 kts 125°
2026-04-10 15:23 43.40094 10.64898 35053 ft 495 kts 125°
2026-04-10 15:23 43.35961 10.72468 35044 ft 495 kts 125°
2026-04-10 15:24 43.31846 10.79983 35033 ft 496 kts 125°
2026-04-10 15:24 43.27688 10.87531 35041 ft 495 kts 125°
2026-04-10 15:25 43.23537 10.95065 35048 ft 495 kts 125°
2026-04-10 15:25 43.19384 11.02587 35047 ft 495 kts 125°
2026-04-10 15:26 43.15223 11.10099 35046 ft 495 kts 125°
2026-04-10 15:26 43.11060 11.17594 35047 ft 495 kts 125°
2026-04-10 15:27 43.06892 11.25090 35038 ft 495 kts 125°
2026-04-10 15:27 43.02721 11.32561 35060 ft 494 kts 125°
2026-04-10 15:28 42.98545 11.40022 35052 ft 494 kts 125°
2026-04-10 15:28 42.94377 11.47482 35045 ft 494 kts 125°
2026-04-10 15:29 42.90223 11.54879 35049 ft 494 kts 125°
2026-04-10 15:29 42.86027 11.62297 35042 ft 494 kts 125°
2026-04-10 15:30 42.81821 11.69722 35052 ft 494 kts 125°
2026-04-10 15:30 42.77621 11.77138 35052 ft 494 kts 125°
2026-04-10 15:31 42.73423 11.84540 35055 ft 494 kts 125°
2026-04-10 15:31 42.69224 11.91928 35051 ft 494 kts 125°
2026-04-10 15:32 42.65012 11.99313 35051 ft 493 kts 125°
2026-04-10 15:32 42.60982 12.06753 35066 ft 491 kts 117°
2026-04-10 15:33 42.57457 12.14691 35033 ft 491 kts 117°
2026-04-10 15:33 42.53939 12.22623 35050 ft 491 kts 117°
2026-04-10 15:34 42.50408 12.30539 35059 ft 490 kts 118°
2026-04-10 15:34 42.46857 12.38435 35051 ft 490 kts 118°
2026-04-10 15:35 42.43309 12.46317 35056 ft 490 kts 118°
2026-04-10 15:35 42.39762 12.54203 35053 ft 491 kts 118°
2026-04-10 15:36 42.36204 12.62086 35046 ft 491 kts 118°
2026-04-10 15:36 42.32657 12.69907 35046 ft 491 kts 118°
2026-04-10 15:37 42.29081 12.77775 35058 ft 491 kts 118°
2026-04-10 15:37 42.25500 12.85643 35043 ft 491 kts 118°
2026-04-10 15:38 42.21916 12.93511 35046 ft 492 kts 118°
2026-04-10 15:38 42.18324 13.01386 35058 ft 492 kts 118°
2026-04-10 15:39 42.14720 13.09235 35044 ft 492 kts 118°
2026-04-10 15:39 42.11109 13.17067 35060 ft 493 kts 118°
2026-04-10 15:40 42.07508 13.24864 35037 ft 494 kts 118°
2026-04-10 15:40 42.03730 13.32614 35035 ft 496 kts 122°
2026-04-10 15:41 41.99587 13.40050 35027 ft 497 kts 125°
2026-04-10 15:41 41.95327 13.47390 35034 ft 498 kts 125°
2026-04-10 15:42 41.91128 13.54780 35040 ft 497 kts 124°
2026-04-10 15:42 41.86986 13.62213 35041 ft 497 kts 123°
2026-04-10 15:43 41.82846 13.69647 35036 ft 497 kts 124°
2026-04-10 15:43 41.78700 13.77061 35035 ft 497 kts 124°
2026-04-10 15:44 41.74566 13.84401 35035 ft 497 kts 124°
2026-04-10 15:44 41.70382 13.91768 35045 ft 497 kts 124°
2026-04-10 15:45 41.66204 13.99130 35048 ft 497 kts 124°
2026-04-10 15:45 41.62026 14.06495 35045 ft 497 kts 124°
2026-04-10 15:46 41.57849 14.13849 35041 ft 497 kts 124°
2026-04-10 15:46 41.53690 14.21149 35047 ft 497 kts 124°
2026-04-10 15:47 41.49492 14.28495 35045 ft 498 kts 124°
2026-04-10 15:47 41.45278 14.35833 35048 ft 498 kts 124°
2026-04-10 15:48 41.41074 14.43162 35037 ft 498 kts 124°
2026-04-10 15:48 41.36863 14.50487 35030 ft 498 kts 124°
2026-04-10 15:49 41.32674 14.57741 35003 ft 498 kts 124°
2026-04-10 15:49 41.30553 14.61410 34194 ft 504 kts 124°
2026-04-10 15:49 41.28395 14.65139 33102 ft 511 kts 124°
2026-04-10 15:50 41.26224 14.68884 32162 ft 512 kts 124°
2026-04-10 15:50 41.24049 14.72626 31562 ft 507 kts 124°
2026-04-10 15:50 41.21904 14.76310 30960 ft 502 kts 124°
2026-04-10 15:50 41.19770 14.79963 30341 ft 499 kts 125°
2026-04-10 15:51 41.17652 14.83592 29664 ft 496 kts 125°
2026-04-10 15:51 41.15552 14.87195 29067 ft 490 kts 124°
2026-04-10 15:51 41.13507 14.90780 28542 ft 484 kts 124°
2026-04-10 15:51 41.11529 14.94361 28002 ft 478 kts 123°
2026-04-10 15:52 41.09605 14.97927 27460 ft 474 kts 122°
2026-04-10 15:52 41.07708 15.01472 26939 ft 469 kts 123°
2026-04-10 15:52 41.05823 15.04982 26419 ft 464 kts 123°
2026-04-10 15:52 41.03946 15.08437 25913 ft 460 kts 123°
2026-04-10 15:53 41.02074 15.11848 25427 ft 456 kts 124°
2026-04-10 15:53 41.00208 15.15223 24943 ft 452 kts 124°
2026-04-10 15:53 40.98352 15.18565 24474 ft 449 kts 124°
2026-04-10 15:53 40.96509 15.21884 24005 ft 446 kts 124°
2026-04-10 15:54 40.94707 15.25129 23570 ft 442 kts 124°
2026-04-10 15:54 40.92870 15.28447 23075 ft 439 kts 124°
2026-04-10 15:54 40.91102 15.31644 22643 ft 435 kts 124°
2026-04-10 15:54 40.89319 15.34867 22186 ft 433 kts 124°
2026-04-10 15:55 40.87547 15.38067 21735 ft 430 kts 125°
2026-04-10 15:55 40.85783 15.41252 21288 ft 428 kts 125°
2026-04-10 15:55 40.84026 15.44424 20804 ft 427 kts 125°
2026-04-10 15:55 40.82278 15.47576 20332 ft 425 kts 125°
2026-04-10 15:56 40.80529 15.50713 19841 ft 423 kts 126°
2026-04-10 15:56 40.78785 15.53830 19350 ft 422 kts 126°
2026-04-10 15:56 40.77042 15.56936 18854 ft 420 kts 126°
2026-04-10 15:56 40.75315 15.60041 18349 ft 419 kts 124°
2026-04-10 15:57 40.73944 15.63406 17805 ft 415 kts 109°
2026-04-10 15:57 40.73209 15.67031 17311 ft 406 kts 95°
2026-04-10 15:57 40.73122 15.70703 16817 ft 396 kts 81°
2026-04-10 15:57 40.73643 15.74212 16335 ft 386 kts 68°
2026-04-10 15:58 40.74574 15.77441 15862 ft 380 kts 63°
2026-04-10 15:58 40.75543 15.80667 15386 ft 377 kts 64°
2026-04-10 15:58 40.76501 15.83863 14915 ft 373 kts 64°
2026-04-10 15:58 40.77449 15.87035 14440 ft 369 kts 64°
2026-04-10 15:59 40.78386 15.90176 14082 ft 363 kts 64°
2026-04-10 15:59 40.79289 15.93225 13970 ft 350 kts 64°
2026-04-10 15:59 40.80158 15.96168 13845 ft 338 kts 64°
2026-04-10 15:59 40.81003 15.99016 13714 ft 328 kts 64°
2026-04-10 16:00 40.81820 16.01778 13595 ft 318 kts 64°
2026-04-10 16:00 40.82613 16.04459 13460 ft 308 kts 64°
2026-04-10 16:00 40.83375 16.07057 13167 ft 299 kts 64°
2026-04-10 16:00 40.84119 16.09613 12597 ft 297 kts 64°
2026-04-10 16:01 40.84854 16.12148 12036 ft 295 kts 65°
2026-04-10 16:01 40.85578 16.14663 11536 ft 291 kts 65°
2026-04-10 16:01 40.86353 16.17043 11192 ft 276 kts 51°
2026-04-10 16:01 40.87661 16.18681 11058 ft 247 kts 21°
2026-04-10 16:02 40.89277 16.19273 10756 ft 243 kts 355°
2026-04-10 16:02 40.90903 16.18786 10335 ft 242 kts 336°
2026-04-10 16:02 40.92485 16.17967 9934 ft 246 kts 337°
2026-04-10 16:02 40.94099 16.17150 9507 ft 250 kts 339°
2026-04-10 16:03 40.95834 16.16982 9089 ft 258 kts 13°
2026-04-10 16:03 40.97357 16.18240 8723 ft 266 kts 49°
2026-04-10 16:03 40.98302 16.20351 8388 ft 269 kts 64°
2026-04-10 16:03 40.98983 16.22678 8025 ft 272 kts 70°
2026-04-10 16:04 40.99573 16.25072 7657 ft 275 kts 71°
2026-04-10 16:04 41.00129 16.27501 7299 ft 277 kts 74°
2026-04-10 16:04 41.00675 16.29952 6953 ft 278 kts 70°
2026-04-10 16:04 41.01348 16.32361 6607 ft 279 kts 68°
2026-04-10 16:05 41.02039 16.34712 6336 ft 277 kts 68°
2026-04-10 16:05 41.02729 16.37094 5978 ft 277 kts 68°
2026-04-10 16:05 41.03417 16.39488 5615 ft 279 kts 68°
2026-04-10 16:05 41.04108 16.41897 5246 ft 280 kts 68°
2026-04-10 16:06 41.04802 16.44313 4885 ft 281 kts 68°
2026-04-10 16:06 41.05498 16.46739 4500 ft 282 kts 68°
2026-04-10 16:06 41.06195 16.49175 4120 ft 283 kts 68°
2026-04-10 16:06 41.06895 16.51620 3748 ft 284 kts 69°
2026-04-10 16:07 41.07603 16.54096 3367 ft 288 kts 69°
2026-04-10 16:07 41.08312 16.56578 2979 ft 288 kts 69°
2026-04-10 16:07 41.08780 16.58218 2709 ft 287 kts 69°
2026-04-10 16:07 41.09722 16.61522 2200 ft 285 kts 70°
2026-04-10 16:08 41.10421 16.63975 1826 ft 282 kts 71°
2026-04-10 16:08 41.11104 16.66376 1476 ft 273 kts 70°
2026-04-10 16:08 41.11746 16.68632 1109 ft 240 kts 70°
2026-04-10 16:08 41.12269 16.70469 811 ft 189 kts 70°
2026-04-10 16:09 41.12692 16.71956 576 ft 158 kts 69°
2026-04-10 16:09 41.12938 16.72816 402 ft 145 kts 69°
2026-04-10 16:09 41.13272 16.74011 206 ft 132 kts 68°
2026-04-10 16:09 41.13560 16.75026 137 ft 97 kts 69°
2026-04-10 16:10 41.13737 16.75650 140 ft 52 kts 69°
2026-04-10 16:10 41.13858 16.76076 135 ft 47 kts 69°
2026-04-10 16:10 41.13981 16.76513 124 ft 24 kts 69°
2026-04-10 16:10 41.14001 16.76639 125 ft 20 kts 100°
2026-04-10 16:11 41.13944 16.76788 124 ft 12 kts 124°
2026-04-10 16:11 41.13874 16.76789 122 ft 13 kts 227°
2026-04-10 16:11 41.13806 16.76773 132 ft 8 kts 180°
2026-04-10 16:11 41.13767 16.76740 134 ft 6 kts 237°
2026-04-10 16:12 41.13753 16.76696 136 ft 5 kts 248°
2026-04-10 16:12 41.13740 16.76651 136 ft 6 kts 249°
2026-04-10 16:12 41.13727 16.76609 136 ft 0 kts 248°
2026-04-10 16:13 41.13724 16.76600 136 ft 3 kts 248°
2026-04-10 16:13 41.13705 16.76562 136 ft 7 kts 224°
2026-04-10 16:13 41.13661 16.76522 136 ft 9 kts 224°
2026-04-10 16:13 41.13631 16.76444 136 ft 8 kts 249°
2026-04-10 16:14 41.13609 16.76369 136 ft 10 kts 249°
2026-04-10 16:14 41.13600 16.76336 136 ft 2 kts 249°
2026-04-10 16:14 41.13591 16.76308 136 ft 4 kts 248°
2026-04-10 16:14 41.13580 16.76274 136 ft 0 kts 246°